Time,TemperatureF,DewpointF,PressureIn,WindDirection,WindDirectionDegrees,WindSpeedMPH,WindSpeedGustMPH,Humidity,HourlyPrecipIn,Conditions,Clouds,dailyrainin,SoftwareType,DateUTC
2013-05-26 00:04:00,62.2,36.9,29.95,SW,230,6.9,6.9,39,0.00,CLR,,0.00,WeatherDisplay:10.37,2013-05-26 07:04:00,
2013-05-26 00:09:00,62.2,37.6,29.94,SW,217,12.0,12.0,40,0.00,CLR,,0.00,WeatherDisplay:10.37,2013-05-26 07:09:00,
2013-05-26 00:14:00,61.5,38.2,29.95,SSE,164,7.0,7.0,42,0.00,CLR,,0.00,WeatherDisplay:10.37,2013-05-26 07:14:00,
2013-05-26 00:19:00,59.9,39.6,29.95,SSE,163,9.2,9.2,47,0.00,CLR,,0.00,WeatherDisplay:10.37,2013-05-26 07:19:00,
2013-05-26 00:24:00,60.0,36.2,29.95,SW,219,11.5,11.5,41,0.00,CLR,,0.00,WeatherDisplay:10.37,2013-05-26 07:24:00,
2013-05-26 00:29:00,60.7,36.2,29.95,SSW,209,6.9,6.9,40,0.00,CLR,,0.00,WeatherDisplay:10.37,2013-05-26 07:29:00,
2013-05-26 00:34:00,61.0,36.5,29.95,WSW,239,10.4,10.4,40,0.00,CLR,,0.00,WeatherDisplay:10.37,2013-05-26 07:34:00,
2013-05-26 00:39:00,61.3,36.1,29.95,West,263,13.8,13.8,39,0.00,CLR,,0.00,WeatherDisplay:10.37,2013-05-26 07:39:00,
2013-05-26 00:44:00,61.7,36.5,29.95,West,261,11.5,11.5,39,0.00,CLR,,0.00,WeatherDisplay:10.37,2013-05-26 07:44:00,
2013-05-26 00:49:00,61.6,36.4,29.95,SSW,213,5.0,5.0,39,0.00,CLR,,0.00,WeatherDisplay:10.37,2013-05-26 07:49:00,
2013-05-26 00:54:00,60.9,36.4,29.95,SE,146,5.8,5.8,40,0.00,CLR,,0.00,WeatherDisplay:10.37,2013-05-26 07:54:00,
2013-05-26 00:59:00,60.2,36.4,29.95,SE,146,5.0,5.0,41,0.00,CLR,,0.00,WeatherDisplay:10.37,2013-05-26 07:59:00,
2013-05-26 01:04:00,59.9,36.1,29.95,SE,146,4.6,4.6,41,0.00,CLR,,0.00,WeatherDisplay:10.37,2013-05-26 08:04:00,
2013-05-26 01:09:00,60.6,36.1,29.95,SW,215,6.9,6.9,40,0.00,CLR,,0.00,WeatherDisplay:10.37,2013-05-26 08:09:00,
2013-05-26 01:14:00,61.1,35.9,29.95,SSW,207,2.3,2.3,39,0.00,CLR,,0.00,WeatherDisplay:10.37,2013-05-26 08:14:00,
2013-05-26 01:19:00,61.0,35.8,29.95,SSW,207,3.5,3.5,39,0.00,CLR,,0.00,WeatherDisplay:10.37,2013-05-26 08:19:00,
2013-05-26 01:24:00,60.7,35.6,29.95,South,181,4.6,4.6,39,0.00,CLR,,0.00,WeatherDisplay:10.37,2013-05-26 08:24:00,
2013-05-26 01:29:00,60.4,35.9,29.95,South,171,5.8,5.8,40,0.00,CLR,,0.00,WeatherDisplay:10.37,2013-05-26 08:29:00,
2013-05-26 01:34:00,60.4,35.9,29.95,SSE,159,11.5,11.5,40,0.00,CLR,,0.00,WeatherDisplay:10.37,2013-05-26 08:34:00,
2013-05-26 01:39:00,60.4,35.3,29.95,SSE,159,4.6,4.6,39,0.00,CLR,,0.00,WeatherDisplay:10.37,2013-05-26 08:39:00,
2013-05-26 01:44:00,60.3,35.9,29.94,SSE,161,6.9,6.9,40,0.00,CLR,,0.00,WeatherDisplay:10.37,2013-05-26 08:44:00,
2013-05-26 01:49:00,60.2,35.8,29.95,South,180,10.4,10.4,40,0.00,CLR,,0.00,WeatherDisplay:10.37,2013-05-26 08:49:00,
2013-05-26 01:54:00,60.1,35.7,29.95,South,180,9.2,9.2,40,0.00,CLR,,0.00,WeatherDisplay:10.37,2013-05-26 08:54:00,
2013-05-26 01:59:00,60.1,35.0,29.94,South,184,11.5,11.5,39,0.00,CLR,,0.00,WeatherDisplay:10.37,2013-05-26 08:59:00,
2013-05-26 02:04:00,60.2,35.1,29.95,South,183,10.4,10.4,39,0.00,CLR,,0.00,WeatherDisplay:10.37,2013-05-26 09:04:00,
2013-05-26 02:09:00,60.3,35.2,29.95,WSW,252,6.9,6.9,39,0.00,CLR,,0.00,WeatherDisplay:10.37,2013-05-26 09:09:00,
2013-05-26 02:14:00,60.2,35.1,29.95,SW,218,12.7,12.7,39,0.00,CLR,,0.00,WeatherDisplay:10.37,2013-05-26 09:14:00,
2013-05-26 02:19:00,60.2,35.8,29.94,SW,234,12.7,12.7,40,0.00,CLR,,0.00,WeatherDisplay:10.37,2013-05-26 09:19:00,
2013-05-26 02:24:00,60.3,35.9,29.95,SW,226,10.4,10.4,40,0.00,CLR,,0.00,WeatherDisplay:10.37,2013-05-26 09:24:00,
2013-05-26 02:29:00,60.2,35.8,29.95,WSW,252,12.7,12.7,40,0.00,CLR,,0.00,WeatherDisplay:10.37,2013-05-26 09:29:00,
2013-05-26 02:34:00,60.2,35.8,29.95,WSW,255,13.8,13.8,40,0.00,CLR,,0.00,WeatherDisplay:10.37,2013-05-26 09:34:00,
2013-05-26 02:39:00,60.3,35.9,29.95,WSW,250,13.0,13.0,40,0.00,CLR,,0.00,WeatherDisplay:10.37,2013-05-26 09:39:00,
2013-05-26 02:44:00,60.3,35.9,29.95,WSW,238,11.5,11.5,40,0.00,CLR,,0.00,WeatherDisplay:10.37,2013-05-26 09:44:00,
2013-05-26 02:49:00,60.1,35.7,29.95,WSW,244,9.2,9.2,40,0.00,CLR,,0.00,WeatherDisplay:10.37,2013-05-26 09:49:00,
2013-05-26 02:54:00,59.7,35.9,29.95,SW,227,8.1,8.1,41,0.00,CLR,,0.00,WeatherDisplay:10.37,2013-05-26 09:54:00,
2013-05-26 02:59:00,59.4,35.7,29.95,SSW,207,5.8,5.8,41,0.00,CLR,,0.00,WeatherDisplay:10.37,2013-05-26 09:59:00,
2013-05-26 03:04:00,59.3,36.2,29.95,SSW,206,7.0,7.0,42,0.00,CLR,,0.00,WeatherDisplay:10.37,2013-05-26 10:04:00,
2013-05-26 03:09:00,59.5,36.4,29.95,SW,218,11.5,11.5,42,0.00,CLR,,0.00,WeatherDisplay:10.37,2013-05-26 10:09:00,
2013-05-26 03:14:00,59.5,36.4,29.95,SSW,213,15.0,15.0,42,0.00,CLR,,0.00,WeatherDisplay:10.37,2013-05-26 10:14:00,
2013-05-26 03:19:00,59.0,36.5,29.95,SW,221,12.7,12.7,43,0.00,CLR,,0.00,WeatherDisplay:10.37,2013-05-26 10:19:00,
2013-05-26 03:24:00,59.0,37.1,29.95,WSW,245,14.0,14.0,44,0.00,CLR,,0.00,WeatherDisplay:10.37,2013-05-26 10:24:00,
2013-05-26 03:29:00,58.5,37.2,29.95,SW,219,15.0,15.0,45,0.00,CLR,,0.00,WeatherDisplay:10.37,2013-05-26 10:29:00,
2013-05-26 03:34:00,58.2,37.5,29.95,SSW,213,11.5,11.5,46,0.00,CLR,,0.00,WeatherDisplay:10.37,2013-05-26 10:34:00,
2013-05-26 03:39:00,57.8,37.7,29.95,WSW,254,14.0,14.0,47,0.00,CLR,,0.00,WeatherDisplay:10.37,2013-05-26 10:39:00,
2013-05-26 03:44:00,57.5,37.4,29.94,WSW,244,15.0,15.0,47,0.00,CLR,,0.00,WeatherDisplay:10.37,2013-05-26 10:44:00,
2013-05-26 03:49:00,57.4,37.9,29.94,WSW,254,11.5,11.5,48,0.00,CLR,,0.00,WeatherDisplay:10.37,2013-05-26 10:49:00,
2013-05-26 03:54:00,57.4,37.9,29.94,WSW,238,11.5,11.5,48,0.00,CLR,,0.00,WeatherDisplay:10.37,2013-05-26 10:54:00,
2013-05-26 03:59:00,57.3,37.2,29.94,SSW,210,11.5,11.5,47,0.00,CLR,,0.00,WeatherDisplay:10.37,2013-05-26 10:59:00,
2013-05-26 04:04:00,57.6,37.0,29.94,WSW,244,11.5,11.5,46,0.00,CLR,,0.00,WeatherDisplay:10.37,2013-05-26 11:04:00,
2013-05-26 04:09:00,58.0,37.3,29.94,SW,227,12.7,12.7,46,0.00,CLR,,0.00,WeatherDisplay:10.37,2013-05-26 11:09:00,
2013-05-26 04:14:00,58.0,37.9,29.94,WSW,250,20.7,20.7,47,0.00,CLR,,0.00,WeatherDisplay:10.37,2013-05-26 11:14:00,
2013-05-26 04:19:00,57.3,37.8,29.94,SW,236,16.1,16.1,48,0.00,CLR,,0.00,WeatherDisplay:10.37,2013-05-26 11:19:00,
2013-05-26 04:24:00,56.8,37.8,29.94,WSW,239,13.8,13.8,49,0.00,CLR,,0.00,WeatherDisplay:10.37,2013-05-26 11:24:00,
2013-05-26 04:29:00,56.5,38.1,29.94,SW,234,11.5,11.5,50,0.00,CLR,,0.00,WeatherDisplay:10.37,2013-05-26 11:29:00,
2013-05-26 04:34:00,56.3,37.9,29.94,SW,217,15.0,15.0,50,0.00,CLR,,0.00,WeatherDisplay:10.37,2013-05-26 11:34:00,
2013-05-26 04:39:00,56.3,37.9,29.94,SW,219,6.9,6.9,50,0.00,CLR,,0.00,WeatherDisplay:10.37,2013-05-26 11:39:00,
2013-05-26 04:44:00,56.5,38.1,29.94,West,259,12.0,12.0,50,0.00,CLR,,0.00,WeatherDisplay:10.37,2013-05-26 11:44:00,
2013-05-26 04:49:00,56.5,37.6,29.94,WSW,240,11.5,11.5,49,0.00,CLR,,0.00,WeatherDisplay:10.37,2013-05-26 11:49:00,
2013-05-26 04:54:00,56.5,38.1,29.94,SW,221,11.5,11.5,50,0.00,CLR,,0.00,WeatherDisplay:10.37,2013-05-26 11:54:00,
2013-05-26 04:59:00,56.4,38.0,29.95,SW,224,9.2,9.2,50,0.00,CLR,,0.00,WeatherDisplay:10.37,2013-05-26 11:59:00,
2013-05-26 05:04:00,56.2,38.3,29.95,WSW,253,8.1,8.1,51,0.00,CLR,,0.00,WeatherDisplay:10.37,2013-05-26 12:04:00,
2013-05-26 05:09:00,55.9,38.5,29.95,WSW,244,9.2,9.2,52,0.00,CLR,,0.00,WeatherDisplay:10.37,2013-05-26 12:09:00,
2013-05-26 05:14:00,55.6,38.2,29.95,SW,230,9.2,9.2,52,0.00,CLR,,0.00,WeatherDisplay:10.37,2013-05-26 12:14:00,
2013-05-26 05:19:00,55.5,38.6,29.94,WSW,239,3.5,3.5,53,0.00,CLR,,0.00,WeatherDisplay:10.37,2013-05-26 12:19:00,
2013-05-26 05:24:00,55.3,38.4,29.95,WSW,241,4.0,4.0,53,0.00,CLR,,0.00,WeatherDisplay:10.37,2013-05-26 12:24:00,
2013-05-26 05:29:00,55.1,38.3,29.95,SW,232,4.6,4.6,53,0.00,CLR,,0.00,WeatherDisplay:10.37,2013-05-26 12:29:00,
2013-05-26 05:34:00,55.3,38.4,29.95,WSW,250,5.8,5.8,53,0.00,CLR,,0.00,WeatherDisplay:10.37,2013-05-26 12:34:00,
2013-05-26 05:39:00,55.2,38.8,29.95,West,265,4.6,4.6,54,0.00,CLR,,0.00,WeatherDisplay:10.37,2013-05-26 12:39:00,
2013-05-26 05:44:00,55.1,38.3,29.95,West,271,9.0,9.0,53,0.00,CLR,,0.00,WeatherDisplay:10.37,2013-05-26 12:44:00,
2013-05-26 05:49:00,55.3,37.5,29.95,West,277,13.8,13.8,51,0.00,CLR,,0.00,WeatherDisplay:10.37,2013-05-26 12:49:00,
2013-05-26 05:54:00,55.5,37.7,29.96,West,271,8.1,8.1,51,0.00,CLR,,0.00,WeatherDisplay:10.37,2013-05-26 12:54:00,
2013-05-26 05:59:00,55.7,37.8,29.96,WNW,290,7.0,7.0,51,0.00,CLR,,0.00,WeatherDisplay:10.37,2013-05-26 12:59:00,
2013-05-26 06:04:00,56.0,38.6,29.96,West,261,5.8,5.8,52,0.00,CLR,,0.00,WeatherDisplay:10.37,2013-05-26 13:04:00,
2013-05-26 06:09:00,55.9,39.0,29.96,WSW,258,3.5,3.5,53,0.00,CLR,,0.00,WeatherDisplay:10.37,2013-05-26 13:09:00,
2013-05-26 06:14:00,55.7,38.8,29.96,SW,235,3.5,3.5,53,0.00,CLR,,0.00,WeatherDisplay:10.37,2013-05-26 13:14:00,
2013-05-26 06:19:00,55.7,38.8,29.96,SW,235,3.5,3.5,53,0.00,CLR,,0.00,WeatherDisplay:10.37,2013-05-26 13:19:00,
2013-05-26 06:24:00,55.8,38.9,29.96,SW,235,3.5,3.5,53,0.00,CLR,,0.00,WeatherDisplay:10.37,2013-05-26 13:24:00,
2013-05-26 06:29:00,56.0,38.6,29.96,West,262,6.9,6.9,52,0.00,CLR,,0.00,WeatherDisplay:10.37,2013-05-26 13:29:00,
2013-05-26 06:34:00,56.3,38.9,29.96,West,275,3.5,3.5,52,0.00,CLR,,0.00,WeatherDisplay:10.37,2013-05-26 13:34:00,
2013-05-26 06:39:00,56.7,38.8,29.97,SW,231,12.7,12.7,51,0.00,CLR,,0.00,WeatherDisplay:10.37,2013-05-26 13:39:00,
2013-05-26 06:44:00,56.9,38.4,29.97,West,260,5.8,5.8,50,0.00,CLR,,0.00,WeatherDisplay:10.37,2013-05-26 13:44:00,
2013-05-26 06:49:00,57.2,38.7,29.97,West,264,11.5,11.5,50,0.00,CLR,,0.00,WeatherDisplay:10.37,2013-05-26 13:49:00,
2013-05-26 06:54:00,57.5,39.0,29.97,West,268,9.2,9.2,50,0.00,CLR,,0.00,WeatherDisplay:10.37,2013-05-26 13:54:00,
2013-05-26 06:59:00,57.9,39.4,29.97,West,275,6.9,6.9,50,0.00,CLR,,0.00,WeatherDisplay:10.37,2013-05-26 13:59:00,
2013-05-26 07:04:00,58.5,39.4,29.97,WSW,257,9.2,9.2,49,0.00,CLR,,0.00,WeatherDisplay:10.37,2013-05-26 14:04:00,
2013-05-26 07:09:00,59.0,39.9,29.97,SW,233,15.0,15.0,49,0.00,CLR,,0.00,WeatherDisplay:10.37,2013-05-26 14:09:00,
2013-05-26 07:14:00,59.0,39.9,29.97,WSW,257,12.7,12.7,49,0.00,CLR,,0.00,WeatherDisplay:10.37,2013-05-26 14:14:00,
2013-05-26 07:19:00,59.0,39.3,29.97,SW,232,15.0,15.0,48,0.00,CLR,,0.00,WeatherDisplay:10.37,2013-05-26 14:19:00,
2013-05-26 07:24:00,59.4,39.7,29.97,WSW,246,12.7,12.7,48,0.00,CLR,,0.00,WeatherDisplay:10.37,2013-05-26 14:24:00,
2013-05-26 07:29:00,59.7,39.4,29.97,WSW,249,11.0,11.0,47,0.00,CLR,,0.00,WeatherDisplay:10.37,2013-05-26 14:29:00,
2013-05-26 07:34:00,60.1,39.8,29.97,WSW,244,11.5,11.5,47,0.00,CLR,,0.00,WeatherDisplay:10.37,2013-05-26 14:34:00,
2013-05-26 07:39:00,60.8,39.9,29.97,WSW,238,12.7,12.7,46,0.00,CLR,,0.00,WeatherDisplay:10.37,2013-05-26 14:39:00,
2013-05-26 07:44:00,61.2,39.7,29.97,SW,219,12.7,12.7,45,0.00,CLR,,0.00,WeatherDisplay:10.37,2013-05-26 14:44:00,
2013-05-26 07:49:00,61.3,39.2,29.97,SW,217,18.4,18.4,44,0.00,CLR,,0.00,WeatherDisplay:10.37,2013-05-26 14:49:00,
2013-05-26 07:54:00,61.4,39.3,29.98,WSW,241,12.7,12.7,44,0.00,CLR,,0.00,WeatherDisplay:10.37,2013-05-26 14:54:00,
2013-05-26 07:59:00,61.9,39.7,29.98,WSW,242,15.0,15.0,44,0.00,CLR,,0.00,WeatherDisplay:10.37,2013-05-26 14:59:00,
2013-05-26 08:04:00,62.6,39.8,29.98,WSW,245,18.4,18.4,43,0.00,CLR,,0.00,WeatherDisplay:10.37,2013-05-26 15:04:00,
2013-05-26 08:09:00,62.9,40.0,29.98,WSW,249,19.6,19.6,43,0.00,CLR,,0.00,WeatherDisplay:10.37,2013-05-26 15:09:00,
2013-05-26 08:14:00,62.9,40.0,29.98,SW,236,19.6,19.6,43,0.00,CLR,,0.00,WeatherDisplay:10.37,2013-05-26 15:14:00,
2013-05-26 08:19:00,62.8,40.0,29.98,WSW,237,17.3,17.3,43,0.00,CLR,,0.00,WeatherDisplay:10.37,2013-05-26 15:19:00,
2013-05-26 08:24:00,63.3,39.8,29.99,West,268,20.7,20.7,42,0.00,CLR,,0.00,WeatherDisplay:10.37,2013-05-26 15:24:00,
2013-05-26 08:29:00,63.6,40.1,29.99,WSW,254,21.0,21.0,42,0.00,CLR,,0.00,WeatherDisplay:10.37,2013-05-26 15:29:00,
2013-05-26 08:34:00,63.4,39.9,29.99,WSW,243,24.2,24.2,42,0.00,CLR,,0.00,WeatherDisplay:10.37,2013-05-26 15:34:00,
2013-05-26 08:39:00,63.5,40.0,29.99,WSW,246,19.6,19.6,42,0.00,CLR,,0.00,WeatherDisplay:10.37,2013-05-26 15:39:00,
2013-05-26 08:44:00,63.9,40.3,29.99,WSW,247,20.7,20.7,42,0.00,CLR,,0.00,WeatherDisplay:10.37,2013-05-26 15:44:00,
2013-05-26 08:49:00,64.1,40.5,29.99,SW,234,17.3,17.3,42,0.00,CLR,,0.00,WeatherDisplay:10.37,2013-05-26 15:49:00,
2013-05-26 08:54:00,64.7,40.4,29.99,WSW,250,17.3,17.3,41,0.00,CLR,,0.00,WeatherDisplay:10.37,2013-05-26 15:54:00,
2013-05-26 08:59:00,65.4,41.1,29.99,West,259,16.1,16.1,41,0.00,CLR,,0.00,WeatherDisplay:10.37,2013-05-26 15:59:00,
2013-05-26 09:04:00,65.9,40.9,29.99,WSW,242,19.0,19.0,40,0.00,CLR,,0.00,WeatherDisplay:10.37,2013-05-26 16:04:00,
2013-05-26 09:09:00,66.3,41.2,29.99,WSW,258,16.1,16.1,40,0.00,CLR,,0.00,WeatherDisplay:10.37,2013-05-26 16:09:00,
2013-05-26 09:14:00,67.0,41.2,29.99,SW,232,19.0,19.0,39,0.00,CLR,,0.00,WeatherDisplay:10.37,2013-05-26 16:14:00,
2013-05-26 09:19:00,67.3,40.8,29.99,WSW,257,15.0,15.0,38,0.00,CLR,,0.00,WeatherDisplay:10.37,2013-05-26 16:19:00,
2013-05-26 09:24:00,67.6,40.4,29.99,WSW,244,20.7,20.7,37,0.00,CLR,,0.00,WeatherDisplay:10.37,2013-05-26 16:24:00,
2013-05-26 09:29:00,67.5,40.3,29.99,WSW,245,24.2,24.2,37,0.00,CLR,,0.00,WeatherDisplay:10.37,2013-05-26 16:29:00,
2013-05-26 09:34:00,67.3,40.1,29.99,SW,221,24.2,24.2,37,0.00,CLR,,0.00,WeatherDisplay:10.37,2013-05-26 16:34:00,
2013-05-26 09:39:00,67.5,39.6,29.99,WSW,238,26.5,26.5,36,0.00,CLR,,0.00,WeatherDisplay:10.37,2013-05-26 16:39:00,
2013-05-26 09:44:00,67.8,39.9,29.99,SSW,207,23.0,23.0,36,0.00,CLR,,0.00,WeatherDisplay:10.37,2013-05-26 16:44:00,
2013-05-26 09:49:00,68.0,40.0,29.99,SW,233,24.2,24.2,36,0.00,CLR,,0.00,WeatherDisplay:10.37,2013-05-26 16:49:00,
2013-05-26 09:54:00,68.1,40.1,29.99,SSW,203,19.6,19.6,36,0.00,CLR,,0.00,WeatherDisplay:10.37,2013-05-26 16:54:00,
2013-05-26 10:00:00,68.8,40.0,29.99,SSW,195,17.3,17.3,35,0.00,CLR,,0.00,WeatherDisplay:10.37,2013-05-26 17:00:00,
2013-05-26 10:05:00,69.5,39.9,29.99,SW,229,24.2,24.2,34,0.00,CLR,,0.00,WeatherDisplay:10.37,2013-05-26 17:05:00,
2013-05-26 10:10:00,69.7,40.1,29.99,West,267,21.9,21.9,34,0.00,CLR,,0.00,WeatherDisplay:10.37,2013-05-26 17:10:00,
2013-05-26 10:15:00,70.0,39.6,29.99,SW,228,18.4,18.4,33,0.00,CLR,,0.00,WeatherDisplay:10.37,2013-05-26 17:15:00,
2013-05-26 10:20:00,70.0,39.6,29.98,WSW,247,22.0,22.0,33,0.00,CLR,,0.00,WeatherDisplay:10.37,2013-05-26 17:20:00,
2013-05-26 10:25:00,70.2,39.7,29.98,WSW,237,18.4,18.4,33,0.00,CLR,,0.00,WeatherDisplay:10.37,2013-05-26 17:25:00,
2013-05-26 10:30:00,70.6,39.3,29.98,SW,221,19.6,19.6,32,0.00,CLR,,0.00,WeatherDisplay:10.37,2013-05-26 17:30:00,
2013-05-26 10:35:00,71.3,39.9,29.98,WSW,245,20.7,20.7,32,0.00,CLR,,0.00,WeatherDisplay:10.37,2013-05-26 17:35:00,
2013-05-26 10:40:00,71.5,40.1,29.98,SW,230,17.3,17.3,32,0.00,CLR,,0.00,WeatherDisplay:10.37,2013-05-26 17:40:00,
2013-05-26 10:45:00,71.9,40.4,29.98,WSW,250,16.1,16.1,32,0.00,CLR,,0.00,WeatherDisplay:10.37,2013-05-26 17:45:00,
2013-05-26 10:50:00,71.9,39.6,29.98,SW,217,18.0,18.0,31,0.00,CLR,,0.00,WeatherDisplay:10.37,2013-05-26 17:50:00,
2013-05-26 10:55:00,72.4,40.0,29.98,WSW,238,19.6,19.6,31,0.00,CLR,,0.00,WeatherDisplay:10.37,2013-05-26 17:55:00,
2013-05-26 11:00:00,72.4,39.2,29.98,WSW,250,19.6,19.6,30,0.00,CLR,,0.00,WeatherDisplay:10.37,2013-05-26 18:00:00,
2013-05-26 11:05:00,72.6,39.4,29.98,West,265,17.3,17.3,30,0.00,CLR,,0.00,WeatherDisplay:10.37,2013-05-26 18:05:00,
2013-05-26 11:10:00,72.7,39.5,29.98,WSW,245,18.4,18.4,30,0.00,CLR,,0.00,WeatherDisplay:10.37,2013-05-26 18:10:00,
2013-05-26 11:15:00,73.2,40.7,29.98,WSW,252,17.3,17.3,31,0.00,CLR,,0.00,WeatherDisplay:10.37,2013-05-26 18:15:00,
2013-05-26 11:20:00,73.9,40.5,29.98,SW,232,19.0,19.0,30,0.00,CLR,,0.00,WeatherDisplay:10.37,2013-05-26 18:20:00,
2013-05-26 11:25:00,74.2,39.9,29.98,West,277,17.3,17.3,29,0.00,CLR,,0.00,WeatherDisplay:10.37,2013-05-26 18:25:00,
2013-05-26 11:30:00,74.0,39.7,29.98,SSW,202,19.6,19.6,29,0.00,CLR,,0.00,WeatherDisplay:10.37,2013-05-26 18:30:00,
2013-05-26 11:35:00,74.1,38.9,29.98,WSW,241,21.9,21.9,28,0.00,CLR,,0.00,WeatherDisplay:10.37,2013-05-26 18:35:00,
2013-05-26 11:40:00,74.4,40.9,29.98,WSW,248,20.0,20.0,30,0.00,CLR,,0.00,WeatherDisplay:10.37,2013-05-26 18:40:00,
2013-05-26 11:45:00,74.2,39.9,29.98,WNW,283,26.5,26.5,29,0.00,CLR,,0.00,WeatherDisplay:10.37,2013-05-26 18:45:00,
2013-05-26 11:50:00,74.1,39.8,29.98,WSW,238,29.9,29.9,29,0.00,CLR,,0.00,WeatherDisplay:10.37,2013-05-26 18:50:00,
2013-05-26 11:55:00,73.8,40.4,29.97,SW,215,25.3,25.3,30,0.00,CLR,,0.00,WeatherDisplay:10.37,2013-05-26 18:55:00,
2013-05-26 12:00:00,73.8,40.4,29.98,WSW,240,24.2,24.2,30,0.00,CLR,,0.00,WeatherDisplay:10.37,2013-05-26 19:00:00,
2013-05-26 12:05:00,73.9,39.6,29.98,WSW,238,28.8,28.8,29,0.00,CLR,,0.00,WeatherDisplay:10.37,2013-05-26 19:05:00,
2013-05-26 12:10:00,74.0,39.7,29.97,WSW,245,23.0,23.0,29,0.00,CLR,,0.00,WeatherDisplay:10.37,2013-05-26 19:10:00,
2013-05-26 12:15:00,74.6,40.2,29.97,West,268,25.3,25.3,29,0.00,CLR,,0.00,WeatherDisplay:10.37,2013-05-26 19:15:00,
2013-05-26 12:20:00,75.1,39.8,29.97,WSW,253,26.5,26.5,28,0.00,CLR,,0.00,WeatherDisplay:10.37,2013-05-26 19:20:00,
2013-05-26 12:25:00,74.7,40.3,29.97,WSW,241,24.2,24.2,29,0.00,CLR,,0.00,WeatherDisplay:10.37,2013-05-26 19:25:00,
2013-05-26 12:30:00,74.6,40.2,29.97,WSW,245,31.1,31.1,29,0.00,CLR,,0.00,WeatherDisplay:10.37,2013-05-26 19:30:00,
2013-05-26 12:35:00,74.2,39.9,29.97,WSW,257,26.5,26.5,29,0.00,CLR,,0.00,WeatherDisplay:10.37,2013-05-26 19:35:00,
2013-05-26 12:40:00,74.6,40.2,29.97,West,263,25.3,25.3,29,0.00,CLR,,0.00,WeatherDisplay:10.37,2013-05-26 19:40:00,
2013-05-26 12:45:00,74.7,40.3,29.97,SSW,208,23.0,23.0,29,0.00,CLR,,0.00,WeatherDisplay:10.37,2013-05-26 19:45:00,
2013-05-26 12:50:00,75.5,40.1,29.96,SW,218,26.5,26.5,28,0.00,CLR,,0.00,WeatherDisplay:10.37,2013-05-26 19:50:00,
2013-05-26 12:55:00,75.2,40.7,29.96,SW,225,24.2,24.2,29,0.00,CLR,,0.00,WeatherDisplay:10.37,2013-05-26 19:55:00,
2013-05-26 13:00:00,75.9,39.5,29.96,SW,232,26.5,26.5,27,0.00,CLR,,0.00,WeatherDisplay:10.37,2013-05-26 20:00:00,
2013-05-26 13:05:00,76.4,39.9,29.96,WSW,242,26.5,26.5,27,0.00,CLR,,0.00,WeatherDisplay:10.37,2013-05-26 20:05:00,
2013-05-26 13:10:00,76.4,39.0,29.96,SW,232,27.6,27.6,26,0.00,CLR,,0.00,WeatherDisplay:10.37,2013-05-26 20:10:00,
2013-05-26 13:15:00,76.6,40.1,29.96,West,269,19.6,19.6,27,0.00,CLR,,0.00,WeatherDisplay:10.37,2013-05-26 20:15:00,
2013-05-26 13:20:00,76.8,40.3,29.96,SW,226,26.5,26.5,27,0.00,CLR,,0.00,WeatherDisplay:10.37,2013-05-26 20:20:00,
2013-05-26 13:25:00,76.9,40.4,29.96,SW,234,26.5,26.5,27,0.00,CLR,,0.00,WeatherDisplay:10.37,2013-05-26 20:25:00,
2013-05-26 13:30:00,76.9,40.4,29.96,WSW,242,25.0,25.0,27,0.00,CLR,,0.00,WeatherDisplay:10.37,2013-05-26 20:30:00,
2013-05-26 13:35:00,76.9,40.4,29.96,SSW,210,20.7,20.7,27,0.00,CLR,,0.00,WeatherDisplay:10.37,2013-05-26 20:35:00,
2013-05-26 13:40:00,77.3,39.7,29.96,WSW,245,22.0,22.0,26,0.00,CLR,,0.00,WeatherDisplay:10.37,2013-05-26 20:40:00,
2013-05-26 13:45:00,77.4,40.8,29.96,WSW,252,26.5,26.5,27,0.00,CLR,,0.00,WeatherDisplay:10.37,2013-05-26 20:45:00,
2013-05-26 13:50:00,77.4,39.8,29.96,SSW,209,17.3,17.3,26,0.00,CLR,,0.00,WeatherDisplay:10.37,2013-05-26 20:50:00,
2013-05-26 13:55:00,78.0,40.3,29.96,WSW,238,26.5,26.5,26,0.00,CLR,,0.00,WeatherDisplay:10.37,2013-05-26 20:55:00,
2013-05-26 14:00:00,77.8,40.2,29.95,SSW,202,23.0,23.0,26,0.00,CLR,,0.00,WeatherDisplay:10.37,2013-05-26 21:00:00,
2013-05-26 14:05:00,77.9,39.2,29.96,WSW,248,25.0,25.0,25,0.00,CLR,,0.00,WeatherDisplay:10.37,2013-05-26 21:05:00,
2013-05-26 14:10:00,77.6,40.0,29.95,WSW,239,21.0,21.0,26,0.00,CLR,,0.00,WeatherDisplay:10.37,2013-05-26 21:10:00,
2013-05-26 14:15:00,77.8,40.2,29.95,West,259,20.7,20.7,26,0.00,CLR,,0.00,WeatherDisplay:10.37,2013-05-26 21:15:00,
2013-05-26 14:20:00,78.2,39.5,29.95,WNW,285,24.2,24.2,25,0.00,CLR,,0.00,WeatherDisplay:10.37,2013-05-26 21:20:00,
2013-05-26 14:25:00,77.6,40.0,29.96,WNW,288,25.3,25.3,26,0.00,CLR,,0.00,WeatherDisplay:10.37,2013-05-26 21:25:00,
2013-05-26 14:30:00,77.7,39.1,29.95,WSW,250,24.2,24.2,25,0.00,CLR,,0.00,WeatherDisplay:10.37,2013-05-26 21:30:00,
2013-05-26 14:35:00,78.0,39.3,29.95,WSW,247,26.5,26.5,25,0.00,CLR,,0.00,WeatherDisplay:10.37,2013-05-26 21:35:00,
2013-05-26 14:40:00,78.2,39.5,29.95,West,279,26.0,26.0,25,0.00,CLR,,0.00,WeatherDisplay:10.37,2013-05-26 21:40:00,
2013-05-26 14:45:00,78.5,39.7,29.95,WNW,286,23.0,23.0,25,0.00,CLR,,0.00,WeatherDisplay:10.37,2013-05-26 21:45:00,
2013-05-26 14:50:00,78.3,39.6,29.95,WSW,256,25.3,25.3,25,0.00,CLR,,0.00,WeatherDisplay:10.37,2013-05-26 21:50:00,
2013-05-26 14:55:00,78.1,39.4,29.95,WNW,286,20.7,20.7,25,0.00,CLR,,0.00,WeatherDisplay:10.37,2013-05-26 21:55:00,
2013-05-26 15:00:00,78.2,39.5,29.95,WSW,245,26.5,26.5,25,0.00,CLR,,0.00,WeatherDisplay:10.37,2013-05-26 22:00:00,
2013-05-26 15:05:00,78.2,39.5,29.95,West,272,25.3,25.3,25,0.00,CLR,,0.00,WeatherDisplay:10.37,2013-05-26 22:05:00,
2013-05-26 15:10:00,77.9,40.2,29.95,West,267,25.3,25.3,26,0.00,CLR,,0.00,WeatherDisplay:10.37,2013-05-26 22:10:00,
2013-05-26 15:15:00,77.7,40.1,29.95,WSW,251,26.5,26.5,26,0.00,CLR,,0.00,WeatherDisplay:10.37,2013-05-26 22:15:00,
2013-05-26 15:20:00,77.4,40.8,29.95,WSW,250,21.9,21.9,27,0.00,CLR,,0.00,WeatherDisplay:10.37,2013-05-26 22:20:00,
2013-05-26 15:25:00,77.1,40.5,29.95,West,276,19.6,19.6,27,0.00,CLR,,0.00,WeatherDisplay:10.37,2013-05-26 22:25:00,
2013-05-26 15:30:00,77.7,41.0,29.94,WSW,246,22.0,22.0,27,0.00,CLR,,0.00,WeatherDisplay:10.37,2013-05-26 22:30:00,
2013-05-26 15:35:00,78.3,40.6,29.95,West,265,26.5,26.5,26,0.00,CLR,,0.00,WeatherDisplay:10.37,2013-05-26 22:35:00,
2013-05-26 15:40:00,78.1,41.4,29.95,West,276,28.8,28.8,27,0.00,CLR,,0.00,WeatherDisplay:10.37,2013-05-26 22:40:00,
2013-05-26 15:45:00,77.5,40.9,29.95,WSW,256,19.6,19.6,27,0.00,CLR,,0.00,WeatherDisplay:10.37,2013-05-26 22:45:00,
2013-05-26 15:50:00,76.5,41.0,29.95,West,270,30.0,30.0,28,0.00,CLR,,0.00,WeatherDisplay:10.37,2013-05-26 22:50:00,
2013-05-26 15:55:00,76.2,40.7,29.95,WNW,289,23.0,23.0,28,0.00,CLR,,0.00,WeatherDisplay:10.37,2013-05-26 22:55:00,
2013-05-26 16:00:00,76.5,40.0,29.95,West,267,26.5,26.5,27,0.00,CLR,,0.00,WeatherDisplay:10.37,2013-05-26 23:00:00,
2013-05-26 16:05:00,76.2,39.8,29.96,West,268,26.5,26.5,27,0.00,CLR,,0.00,WeatherDisplay:10.37,2013-05-26 23:05:00,
2013-05-26 16:10:00,75.9,39.5,29.95,West,266,28.8,28.8,27,0.00,CLR,,0.00,WeatherDisplay:10.37,2013-05-26 23:10:00,
2013-05-26 16:15:00,75.7,39.3,29.95,WSW,246,28.8,28.8,27,0.00,CLR,,0.00,WeatherDisplay:10.37,2013-05-26 23:15:00,
2013-05-26 16:20:00,75.7,40.3,29.95,WSW,252,26.5,26.5,28,0.00,CLR,,0.00,WeatherDisplay:10.37,2013-05-26 23:20:00,
2013-05-26 16:25:00,75.8,39.4,29.96,WSW,258,26.5,26.5,27,0.00,CLR,,0.00,WeatherDisplay:10.37,2013-05-26 23:25:00,
2013-05-26 16:30:00,75.7,39.3,29.96,WSW,252,28.8,28.8,27,0.00,CLR,,0.00,WeatherDisplay:10.37,2013-05-26 23:30:00,
2013-05-26 16:35:00,75.4,40.0,29.96,WSW,254,32.2,32.2,28,0.00,CLR,,0.00,WeatherDisplay:10.37,2013-05-26 23:35:00,
2013-05-26 16:40:00,75.3,40.8,29.95,WSW,254,28.8,28.8,29,0.00,CLR,,0.00,WeatherDisplay:10.37,2013-05-26 23:40:00,
2013-05-26 16:45:00,75.1,40.7,29.95,West,269,28.0,28.0,29,0.00,CLR,,0.00,WeatherDisplay:10.37,2013-05-26 23:45:00,
2013-05-26 16:50:00,74.9,40.5,29.95,WSW,252,25.0,25.0,29,0.00,CLR,,0.00,WeatherDisplay:10.37,2013-05-26 23:50:00,
2013-05-26 16:55:00,74.5,40.1,29.95,WSW,252,28.8,28.8,29,0.00,CLR,,0.00,WeatherDisplay:10.37,2013-05-26 23:55:00,
2013-05-26 17:00:00,74.1,39.8,29.95,SW,227,28.8,28.8,29,0.00,CLR,,0.00,WeatherDisplay:10.37,2013-05-27 00:00:00,
2013-05-26 17:05:00,74.2,40.8,29.95,WSW,238,23.0,23.0,30,0.00,CLR,,0.00,WeatherDisplay:10.37,2013-05-27 00:05:00,
2013-05-26 17:10:00,74.2,39.9,29.95,WSW,258,25.3,25.3,29,0.00,CLR,,0.00,WeatherDisplay:10.37,2013-05-27 00:10:00,
2013-05-26 17:15:00,74.8,40.4,29.95,WNW,284,19.6,19.6,29,0.00,CLR,,0.00,WeatherDisplay:10.37,2013-05-27 00:15:00,
2013-05-26 17:20:00,75.1,40.7,29.95,WSW,258,17.3,17.3,29,0.00,CLR,,0.00,WeatherDisplay:10.37,2013-05-27 00:20:00,
2013-05-26 17:25:00,75.1,40.7,29.95,West,267,24.2,24.2,29,0.00,CLR,,0.00,WeatherDisplay:10.37,2013-05-27 00:25:00,
2013-05-26 17:30:00,74.7,40.3,29.95,West,265,23.0,23.0,29,0.00,CLR,,0.00,WeatherDisplay:10.37,2013-05-27 00:30:00,
2013-05-26 17:35:00,74.7,39.4,29.95,SW,234,33.4,33.4,28,0.00,CLR,,0.00,WeatherDisplay:10.37,2013-05-27 00:35:00,
2013-05-26 17:40:00,73.9,39.6,29.95,West,275,26.5,26.5,29,0.00,CLR,,0.00,WeatherDisplay:10.37,2013-05-27 00:40:00,
2013-05-26 17:45:00,73.8,38.6,29.95,WSW,257,27.6,27.6,28,0.00,CLR,,0.00,WeatherDisplay:10.37,2013-05-27 00:45:00,
2013-05-26 17:50:00,73.2,39.9,29.95,West,264,29.9,29.9,30,0.00,CLR,,0.00,WeatherDisplay:10.37,2013-05-27 00:50:00,
2013-05-26 17:55:00,73.2,38.1,29.96,West,261,31.1,31.1,28,0.00,CLR,,0.00,WeatherDisplay:10.37,2013-05-27 00:55:00,
2013-05-26 18:00:00,73.0,38.9,29.95,West,277,26.5,26.5,29,0.00,CLR,,0.00,WeatherDisplay:10.37,2013-05-27 01:00:00,
2013-05-26 18:05:00,72.8,39.5,29.96,West,264,22.0,22.0,30,0.00,CLR,,0.00,WeatherDisplay:10.37,2013-05-27 01:05:00,
2013-05-26 18:10:00,73.0,38.0,29.96,West,271,20.7,20.7,28,0.00,CLR,,0.00,WeatherDisplay:10.37,2013-05-27 01:10:00,
2013-05-26 18:15:00,72.5,38.4,29.95,WNW,286,24.2,24.2,29,0.00,CLR,,0.00,WeatherDisplay:10.37,2013-05-27 01:15:00,
2013-05-26 18:20:00,72.7,39.5,29.95,WSW,250,23.0,23.0,30,0.00,CLR,,0.00,WeatherDisplay:10.37,2013-05-27 01:20:00,
2013-05-26 18:25:00,72.6,39.4,29.95,West,265,21.9,21.9,30,0.00,CLR,,0.00,WeatherDisplay:10.37,2013-05-27 01:25:00,
2013-05-26 18:30:00,72.3,38.2,29.96,West,268,24.0,24.0,29,0.00,CLR,,0.00,WeatherDisplay:10.37,2013-05-27 01:30:00,
2013-05-26 18:35:00,72.0,38.9,29.96,West,272,19.0,19.0,30,0.00,CLR,,0.00,WeatherDisplay:10.37,2013-05-27 01:35:00,
2013-05-26 18:40:00,71.9,38.8,29.96,West,267,25.3,25.3,30,0.00,CLR,,0.00,WeatherDisplay:10.37,2013-05-27 01:40:00,
2013-05-26 18:45:00,71.2,39.0,29.96,West,260,26.5,26.5,31,0.00,CLR,,0.00,WeatherDisplay:10.37,2013-05-27 01:45:00,
2013-05-26 18:50:00,71.5,38.4,29.95,WNW,284,25.3,25.3,30,0.00,CLR,,0.00,WeatherDisplay:10.37,2013-05-27 01:50:00,
2013-05-26 18:55:00,71.0,39.6,29.95,SW,231,30.0,30.0,32,0.00,CLR,,0.00,WeatherDisplay:10.37,2013-05-27 01:55:00,
2013-05-26 19:00:00,70.2,39.7,29.96,West,265,26.5,26.5,33,0.00,CLR,,0.00,WeatherDisplay:10.37,2013-05-27 02:00:00,
2013-05-26 19:05:00,69.9,40.2,29.95,WSW,252,23.0,23.0,34,0.00,CLR,,0.00,WeatherDisplay:10.37,2013-05-27 02:05:00,
2013-05-26 19:10:00,69.8,39.4,29.96,West,268,23.0,23.0,33,0.00,CLR,,0.00,WeatherDisplay:10.37,2013-05-27 02:10:00,
2013-05-26 19:15:00,69.9,38.7,29.95,West,261,26.5,26.5,32,0.00,CLR,,0.00,WeatherDisplay:10.37,2013-05-27 02:15:00,
2013-05-26 19:20:00,69.8,37.8,29.96,WNW,288,18.4,18.4,31,0.00,CLR,,0.00,WeatherDisplay:10.37,2013-05-27 02:20:00,
2013-05-26 19:25:00,69.2,38.1,29.96,West,263,28.0,28.0,32,0.00,CLR,,0.00,WeatherDisplay:10.37,2013-05-27 02:25:00,
2013-05-26 19:30:00,69.2,38.1,29.96,West,263,20.7,20.7,32,0.00,CLR,,0.00,WeatherDisplay:10.37,2013-05-27 02:30:00,
2013-05-26 19:35:00,68.8,38.5,29.96,West,268,27.6,27.6,33,0.00,CLR,,0.00,WeatherDisplay:10.37,2013-05-27 02:35:00,
2013-05-26 19:40:00,68.2,38.7,29.96,WNW,288,26.5,26.5,34,0.00,CLR,,0.00,WeatherDisplay:10.37,2013-05-27 02:40:00,
2013-05-26 19:45:00,68.0,38.6,29.95,West,261,21.9,21.9,34,0.00,CLR,,0.00,WeatherDisplay:10.37,2013-05-27 02:45:00,
2013-05-26 19:50:00,67.8,39.1,29.95,West,266,18.4,18.4,35,0.00,CLR,,0.00,WeatherDisplay:10.37,2013-05-27 02:50:00,
2013-05-26 19:55:00,67.8,39.1,29.95,West,266,20.7,20.7,35,0.00,CLR,,0.00,WeatherDisplay:10.37,2013-05-27 02:55:00,
2013-05-26 20:00:00,68.0,39.3,29.96,West,261,12.7,12.7,35,0.00,CLR,,0.00,WeatherDisplay:10.37,2013-05-27 03:00:00,
2013-05-26 20:05:00,67.5,39.6,29.96,West,280,19.6,19.6,36,0.00,CLR,,0.00,WeatherDisplay:10.37,2013-05-27 03:05:00,
2013-05-26 20:10:00,67.2,39.3,29.96,West,277,23.0,23.0,36,0.00,CLR,,0.00,WeatherDisplay:10.37,2013-05-27 03:10:00,
2013-05-26 20:15:00,66.8,39.7,29.96,WSW,243,23.0,23.0,37,0.00,CLR,,0.00,WeatherDisplay:10.37,2013-05-27 03:15:00,
2013-05-26 20:20:00,66.6,39.5,29.96,WSW,257,19.6,19.6,37,0.00,CLR,,0.00,WeatherDisplay:10.37,2013-05-27 03:20:00,
2013-05-26 20:25:00,66.4,40.0,29.97,WSW,250,19.6,19.6,38,0.00,CLR,,0.00,WeatherDisplay:10.37,2013-05-27 03:25:00,
2013-05-26 20:30:00,66.1,40.4,29.97,West,271,17.3,17.3,39,0.00,CLR,,0.00,WeatherDisplay:10.37,2013-05-27 03:30:00,
2013-05-26 20:35:00,66.1,40.4,29.97,West,259,11.5,11.5,39,0.00,CLR,,0.00,WeatherDisplay:10.37,2013-05-27 03:35:00,
2013-05-26 20:40:00,65.8,40.1,29.97,WSW,237,6.9,6.9,39,0.00,CLR,,0.00,WeatherDisplay:10.37,2013-05-27 03:40:00,
2013-05-26 20:45:00,65.9,40.2,29.97,WSW,244,5.8,5.8,39,0.00,CLR,,0.00,WeatherDisplay:10.37,2013-05-27 03:45:00,
2013-05-26 20:50:00,66.1,40.4,29.96,WNW,292,3.5,3.5,39,0.00,CLR,,0.00,WeatherDisplay:10.37,2013-05-27 03:50:00,
2013-05-26 20:55:00,66.1,40.4,29.96,South,169,6.9,6.9,39,0.00,CLR,,0.00,WeatherDisplay:10.37,2013-05-27 03:55:00,
2013-05-26 21:00:00,66.1,39.1,29.96,WSW,243,14.0,14.0,37,0.00,CLR,,0.00,WeatherDisplay:10.37,2013-05-27 04:00:00,
2013-05-26 21:01:00,66.1,39.1,29.96,SSW,204,12.7,12.7,37,0.00,CLR,,0.00,WeatherDisplay:10.37,2013-05-27 04:01:00,
2013-05-26 21:02:00,66.3,39.9,29.96,WSW,252,13.8,13.8,38,0.00,CLR,,0.00,WeatherDisplay:10.37,2013-05-27 04:02:00,
2013-05-26 21:07:00,66.0,40.3,29.96,West,273,9.0,9.0,39,0.00,CLR,,0.00,WeatherDisplay:10.37,2013-05-27 04:07:00,
2013-05-26 21:12:00,65.7,40.1,29.97,West,269,9.2,9.2,39,0.00,CLR,,0.00,WeatherDisplay:10.37,2013-05-27 04:12:00,
2013-05-26 21:17:00,65.6,40.0,29.97,WSW,252,5.0,5.0,39,0.00,CLR,,0.00,WeatherDisplay:10.37,2013-05-27 04:17:00,
2013-05-26 21:22:00,65.4,39.8,29.97,WNW,290,0.0,0.0,39,0.00,CLR,,0.00,WeatherDisplay:10.37,2013-05-27 04:22:00,
2013-05-26 21:27:00,65.4,39.8,29.96,WNW,290,0.0,0.0,39,0.00,CLR,,0.00,WeatherDisplay:10.37,2013-05-27 04:27:00,
2013-05-26 21:32:00,65.2,39.6,29.96,WNW,290,0.0,0.0,39,0.00,CLR,,0.00,WeatherDisplay:10.37,2013-05-27 04:32:00,
2013-05-26 21:37:00,64.8,39.2,29.96,SSW,192,1.1,1.5,39,0.00,CLR,,0.00,WeatherDisplay:10.37,2013-05-27 04:37:00,
2013-05-26 21:43:00,64.9,39.3,29.97,SSW,192,1.1,1.1,39,0.00,CLR,,0.00,WeatherDisplay:10.37,2013-05-27 04:43:00,
2013-05-26 21:48:00,65.0,39.4,29.97,SSW,192,0.0,0.0,39,0.00,CLR,,0.00,WeatherDisplay:10.37,2013-05-27 04:48:00,
2013-05-26 21:53:00,65.1,39.5,29.97,South,174,5.0,5.0,39,0.00,CLR,,0.00,WeatherDisplay:10.37,2013-05-27 04:53:00,
2013-05-26 21:58:00,65.2,39.6,29.97,South,173,4.0,4.0,39,0.00,CLR,,0.00,WeatherDisplay:10.37,2013-05-27 04:58:00,
2013-05-26 22:03:00,64.8,39.2,29.97,SSE,148,7.0,7.0,39,0.00,CLR,,0.00,WeatherDisplay:10.37,2013-05-27 05:03:00,
2013-05-26 22:08:00,64.9,39.3,29.97,SE,140,6.9,6.9,39,0.00,CLR,,0.00,WeatherDisplay:10.37,2013-05-27 05:08:00,
2013-05-26 22:13:00,64.4,38.9,29.97,SSE,153,10.0,10.0,39,0.00,CLR,,0.00,WeatherDisplay:10.37,2013-05-27 05:13:00,
2013-05-26 22:18:00,64.7,39.2,29.98,SSE,161,4.6,4.6,39,0.00,CLR,,0.00,WeatherDisplay:10.37,2013-05-27 05:18:00,
2013-05-26 22:23:00,64.6,39.1,29.97,NW,324,6.0,6.0,39,0.00,CLR,,0.00,WeatherDisplay:10.37,2013-05-27 05:23:00,
2013-05-26 22:28:00,64.6,39.1,29.97,NW,315,3.5,3.5,39,0.00,CLR,,0.00,WeatherDisplay:10.37,2013-05-27 05:28:00,
2013-05-26 22:33:00,64.8,39.2,29.97,SE,126,11.5,11.5,39,0.00,CLR,,0.00,WeatherDisplay:10.37,2013-05-27 05:33:00,
2013-05-26 22:38:00,65.9,38.2,29.97,NE,45,18.4,18.4,36,0.00,CLR,,0.00,WeatherDisplay:10.37,2013-05-27 05:38:00,
2013-05-26 22:43:00,66.7,38.2,29.96,East,98,15.0,15.0,35,0.00,CLR,,0.00,WeatherDisplay:10.37,2013-05-27 05:43:00,
2013-05-26 22:48:00,66.6,38.8,29.96,ENE,67,12.7,12.7,36,0.00,CLR,,0.00,WeatherDisplay:10.37,2013-05-27 05:48:00,
2013-05-26 22:53:00,66.4,38.6,29.96,ESE,113,15.0,15.0,36,0.00,CLR,,0.00,WeatherDisplay:10.37,2013-05-27 05:53:00,
2013-05-26 22:58:00,65.6,39.3,29.96,SE,145,13.0,13.0,38,0.00,CLR,,0.00,WeatherDisplay:10.37,2013-05-27 05:58:00,
2013-05-26 23:03:00,65.3,39.0,29.96,SE,143,15.0,15.0,38,0.00,CLR,,0.00,WeatherDisplay:10.37,2013-05-27 06:03:00,
2013-05-26 23:08:00,64.9,39.3,29.97,South,182,11.5,11.5,39,0.00,CLR,,0.00,WeatherDisplay:10.37,2013-05-27 06:08:00,
2013-05-26 23:13:00,64.5,39.0,29.97,South,185,6.9,6.9,39,0.00,CLR,,0.00,WeatherDisplay:10.37,2013-05-27 06:13:00,
2013-05-26 23:18:00,64.7,38.5,29.97,SSW,208,5.8,5.8,38,0.00,CLR,,0.00,WeatherDisplay:10.37,2013-05-27 06:18:00,
2013-05-26 23:23:00,64.9,38.0,29.97,SSW,209,4.6,4.6,37,0.00,CLR,,0.00,WeatherDisplay:10.37,2013-05-27 06:23:00,
2013-05-26 23:28:00,64.9,38.0,29.98,SSW,209,5.8,5.8,37,0.00,CLR,,0.00,WeatherDisplay:10.37,2013-05-27 06:28:00,
2013-05-26 23:33:00,64.7,38.5,29.97,SE,128,6.9,6.9,38,0.00,CLR,,0.00,WeatherDisplay:10.37,2013-05-27 06:33:00,
2013-05-26 23:38:00,64.5,38.3,29.97,ENE,69,5.0,5.0,38,0.00,CLR,,0.00,WeatherDisplay:10.37,2013-05-27 06:38:00,
2013-05-26 23:43:00,65.2,38.9,29.97,NE,40,12.7,12.7,38,0.00,CLR,,0.00,WeatherDisplay:10.37,2013-05-27 06:43:00,
2013-05-26 23:48:00,66.1,39.1,29.96,North,351,15.0,15.0,37,0.00,CLR,,0.00,WeatherDisplay:10.37,2013-05-27 06:48:00,
2013-05-26 23:53:00,67.2,40.0,29.95,NW,325,16.0,16.0,37,0.00,CLR,,0.00,WeatherDisplay:10.37,2013-05-27 06:53:00,
2013-05-26 23:58:00,67.5,41.0,29.95,NW,323,16.1,16.1,38,0.00,CLR,,0.00,WeatherDisplay:10.37,2013-05-27 06:58:00,